createdAt,value
2022-10-07T00:00:57.697Z,9.05
2022-10-07T00:03:27.603Z,9.05
2022-10-07T00:06:04.623Z,9.05
2022-10-07T00:08:34.534Z,9.04
2022-10-07T00:11:07.446Z,9.03
2022-10-07T00:13:38.218Z,9.03
2022-10-07T00:16:09.149Z,9.03
2022-10-07T00:18:39.098Z,9.04
2022-10-07T00:21:09.215Z,9.02
2022-10-07T00:23:38.288Z,9.03
2022-10-07T00:26:08.571Z,9.03
2022-10-07T00:28:37.894Z,9.02
2022-10-07T00:31:08.343Z,9.01
2022-10-07T00:33:38.995Z,9.01
2022-10-07T00:36:15.462Z,9.00
2022-10-07T00:38:43.721Z,8.98
2022-10-07T00:41:18.460Z,8.97
2022-10-07T00:43:47.255Z,8.96
2022-10-07T01:03:54.528Z,8.91
2022-10-07T01:06:23.114Z,8.89
2022-10-07T01:08:53.457Z,8.87
2022-10-07T01:11:35.699Z,8.85
2022-10-07T01:14:12.589Z,8.83
2022-10-07T01:16:52.652Z,8.82
2022-10-07T01:19:40.739Z,8.80
2022-10-07T01:22:21.361Z,8.80
2022-10-07T01:25:01.581Z,8.80
2022-10-07T01:27:31.272Z,8.80
2022-10-07T01:30:04.161Z,8.80
2022-10-07T01:32:37.715Z,8.80
2022-10-07T01:35:11.006Z,8.80
2022-10-07T01:37:50.549Z,8.79
2022-10-07T01:40:25.264Z,8.78
2022-10-07T01:42:55.402Z,8.77
2022-10-07T01:45:27.517Z,8.74
2022-10-07T01:47:55.966Z,8.72
2022-10-07T01:50:27.524Z,8.69
2022-10-07T01:53:18.834Z,8.65
2022-10-07T01:55:57.627Z,8.62
2022-10-07T01:58:38.675Z,8.59
2022-10-07T02:01:17.204Z,8.57
2022-10-07T02:04:06.641Z,8.55
2022-10-07T02:06:45.972Z,8.53
2022-10-07T02:09:25.772Z,8.52
2022-10-07T02:12:04.855Z,8.49
2022-10-07T02:14:37.734Z,8.48
2022-10-07T02:17:11.879Z,8.46
2022-10-07T02:19:47.937Z,8.43
2022-10-07T02:22:18.460Z,8.42
2022-10-07T02:24:48.708Z,8.41
2022-10-07T02:27:22.723Z,8.39
2022-10-07T02:29:56.809Z,8.38
2022-10-07T02:32:29.222Z,8.36
2022-10-07T02:35:02.022Z,8.36
2022-10-07T02:37:34.999Z,8.36
2022-10-07T02:40:11.139Z,8.35
2022-10-07T02:42:47.716Z,8.33
2022-10-07T02:45:26.465Z,8.31
2022-10-07T02:48:00.612Z,8.29
2022-10-07T02:50:37.104Z,8.28
2022-10-07T02:53:06.485Z,8.27
2022-10-07T02:55:36.151Z,8.26
2022-10-07T02:58:08.447Z,8.25
2022-10-07T03:00:41.904Z,8.23
2022-10-07T03:03:10.902Z,8.21
2022-10-07T03:05:57.987Z,8.20
2022-10-07T03:08:26.268Z,8.19
2022-10-07T03:10:54.540Z,8.17
2022-10-07T03:13:24.220Z,8.16
2022-10-07T03:15:55.993Z,8.15
2022-10-07T03:18:27.735Z,8.13
2022-10-07T03:21:03.612Z,8.10
2022-10-07T03:23:31.824Z,8.08
2022-10-07T03:26:00.905Z,8.07
2022-10-07T03:28:34.683Z,8.05
2022-10-07T03:31:08.435Z,8.05
2022-10-07T03:33:37.267Z,8.03
2022-10-07T03:36:07.770Z,8.02
2022-10-07T03:38:36.492Z,8.01
2022-10-07T03:41:05.903Z,7.99
2022-10-07T03:43:35.023Z,7.98
2022-10-07T03:46:05.313Z,7.96
2022-10-07T03:48:35.861Z,7.93
2022-10-07T03:51:04.462Z,7.92
2022-10-07T03:53:34.154Z,7.89
2022-10-07T03:56:02.661Z,7.87
2022-10-07T03:58:31.538Z,7.84
2022-10-07T04:01:07.742Z,7.80
2022-10-07T04:03:40.463Z,7.78
2022-10-07T04:06:10.357Z,7.75
2022-10-07T04:08:40.419Z,7.72
2022-10-07T04:11:09.216Z,7.69
2022-10-07T04:13:40.703Z,7.68
2022-10-07T04:16:11.084Z,7.66
2022-10-07T04:18:43.585Z,7.64
2022-10-07T04:21:14.105Z,7.63
2022-10-07T04:23:42.716Z,7.63
2022-10-07T04:26:12.495Z,7.62
2022-10-07T04:28:44.335Z,7.62
2022-10-07T04:31:15.426Z,7.61
2022-10-07T04:33:46.841Z,7.60
2022-10-07T04:36:19.887Z,7.60
2022-10-07T04:39:20.701Z,7.60
2022-10-07T04:41:55.881Z,7.60
2022-10-07T04:44:29.040Z,7.61
2022-10-07T04:47:03.359Z,7.61
2022-10-07T04:49:31.959Z,7.63
2022-10-07T04:52:01.305Z,7.64
2022-10-07T04:54:34.176Z,7.65
2022-10-07T04:57:02.649Z,7.68
2022-10-07T04:59:31.720Z,7.71
2022-10-07T05:02:01.323Z,7.74
2022-10-07T05:04:30.966Z,7.78
2022-10-07T05:06:59.592Z,7.81
2022-10-07T05:09:28.541Z,7.85
2022-10-07T05:11:57.982Z,7.93
2022-10-07T05:14:26.044Z,8.08
2022-10-07T05:16:54.559Z,8.14
2022-10-07T05:19:25.743Z,8.17
2022-10-07T05:21:54.448Z,8.21
2022-10-07T05:24:22.856Z,8.24
2022-10-07T05:26:51.941Z,8.28
2022-10-07T05:29:23.416Z,8.32
2022-10-07T05:31:52.932Z,8.36
2022-10-07T05:34:24.156Z,8.40
2022-10-07T05:36:54.502Z,8.48
2022-10-07T05:39:23.343Z,8.78
2022-10-07T05:41:54.881Z,9.28
2022-10-07T05:44:28.205Z,9.92
2022-10-07T05:46:58.321Z,10.64
2022-10-07T05:49:27.520Z,11.40
2022-10-07T05:51:55.794Z,12.18
2022-10-07T05:54:24.499Z,12.98
2022-10-07T05:56:53.959Z,13.72
2022-10-07T05:59:22.156Z,14.41
2022-10-07T06:01:51.240Z,15.09
2022-10-07T06:04:22.066Z,15.74
2022-10-07T06:06:51.426Z,16.35
2022-10-07T06:09:38.046Z,16.98
2022-10-07T06:12:32.597Z,17.70
2022-10-07T06:15:02.533Z,18.42
2022-10-07T06:17:31.134Z,19.09
2022-10-07T06:20:00.505Z,19.76
2022-10-07T06:22:28.852Z,20.38
2022-10-07T06:25:01.495Z,20.99
2022-10-07T06:27:30.358Z,21.65
2022-10-07T06:29:58.709Z,22.29
2022-10-07T06:32:31.028Z,22.92
2022-10-07T06:35:05.716Z,23.64
2022-10-07T06:37:40.170Z,24.30
2022-10-07T06:40:11.337Z,24.98
2022-10-07T06:42:40.308Z,25.61
2022-10-07T06:45:42.538Z,26.21
2022-10-07T06:48:12.194Z,26.68
2022-10-07T06:50:49.052Z,27.21
2022-10-07T06:53:17.594Z,27.82
2022-10-07T06:55:47.036Z,28.28
2022-10-07T06:58:15.261Z,28.67
2022-10-07T07:00:47.068Z,28.99
2022-10-07T07:03:15.244Z,29.33
2022-10-07T07:05:45.804Z,29.58
2022-10-07T07:08:17.098Z,29.76
2022-10-07T07:10:45.962Z,29.96
2022-10-07T07:13:14.919Z,30.16
2022-10-07T07:15:43.214Z,30.35
2022-10-07T07:18:11.704Z,30.49
2022-10-07T07:20:40.930Z,30.62
2022-10-07T07:23:10.448Z,30.83
2022-10-07T07:25:40.054Z,30.97
2022-10-07T07:28:08.615Z,31.17
2022-10-07T07:30:39.296Z,31.38
2022-10-07T07:33:08.282Z,31.54
2022-10-07T07:35:40.814Z,31.67
2022-10-07T07:38:10.790Z,31.77
2022-10-07T07:40:39.574Z,31.94
2022-10-07T07:43:09.422Z,32.15
2022-10-07T07:45:38.453Z,32.17
2022-10-07T07:48:07.081Z,32.16
2022-10-07T07:50:35.682Z,32.26
2022-10-07T07:53:41.050Z,32.49
2022-10-07T07:56:13.304Z,32.76
2022-10-07T07:58:44.274Z,33.09
2022-10-07T08:01:18.687Z,33.40
2022-10-07T08:03:48.783Z,33.75
2022-10-07T08:06:21.749Z,34.14
2022-10-07T08:08:53.223Z,34.33
2022-10-07T08:11:24.679Z,34.54
2022-10-07T08:13:56.520Z,34.73
2022-10-07T08:16:30.443Z,34.80
2022-10-07T08:19:02.706Z,34.97
2022-10-07T08:21:34.138Z,35.29
2022-10-07T08:24:08.394Z,35.67
2022-10-07T08:26:40.212Z,35.94
2022-10-07T08:29:15.353Z,36.05
2022-10-07T08:31:46.261Z,35.92
2022-10-07T08:34:17.430Z,36.07
2022-10-07T08:36:49.261Z,36.35
2022-10-07T08:39:20.402Z,36.64
2022-10-07T08:42:13.653Z,36.92
2022-10-07T08:44:47.982Z,37.22
2022-10-07T08:47:28.514Z,37.43
2022-10-07T08:50:07.965Z,37.36
2022-10-07T08:52:50.923Z,37.12
2022-10-07T08:55:29.001Z,36.70
2022-10-07T08:58:18.586Z,35.81
2022-10-07T09:00:57.070Z,34.85
2022-10-07T09:03:39.582Z,34.11
2022-10-07T09:06:16.819Z,33.38
2022-10-07T09:08:53.335Z,32.66
2022-10-07T09:11:26.663Z,32.06
2022-10-07T09:14:03.458Z,31.60
2022-10-07T09:16:39.405Z,31.26
2022-10-07T09:19:17.256Z,30.88
2022-10-07T09:21:51.470Z,30.48
2022-10-07T09:24:25.588Z,30.07
2022-10-07T09:26:59.495Z,29.72
2022-10-07T09:29:31.779Z,29.37
2022-10-07T09:32:02.759Z,29.02
2022-10-07T09:34:34.532Z,28.59
2022-10-07T09:37:22.007Z,28.07
2022-10-07T09:39:54.801Z,27.59
2022-10-07T09:42:34.919Z,27.09
2022-10-07T09:45:18.765Z,26.61
2022-10-07T09:47:54.148Z,26.24
2022-10-07T09:50:38.553Z,25.83
2022-10-07T09:53:20.472Z,25.38
2022-10-07T09:55:53.231Z,24.90
2022-10-07T09:58:29.365Z,24.58
2022-10-07T10:01:01.929Z,24.38
2022-10-07T10:03:35.165Z,24.32
2022-10-07T10:06:08.740Z,24.30
2022-10-07T10:08:43.154Z,24.27
2022-10-07T10:11:29.154Z,24.17
2022-10-07T10:14:20.207Z,24.01
2022-10-07T10:16:51.483Z,23.78
2022-10-07T10:19:27.820Z,23.54
2022-10-07T10:21:59.749Z,23.36
2022-10-07T10:24:51.282Z,23.25
2022-10-07T10:27:28.745Z,23.17
2022-10-07T10:30:05.662Z,23.02
2022-10-07T10:33:09.664Z,22.82
2022-10-07T10:35:48.342Z,22.60
2022-10-07T10:38:34.032Z,22.47
2022-10-07T10:41:17.706Z,22.33
2022-10-07T10:44:04.808Z,22.21
2022-10-07T10:46:51.768Z,22.20
2022-10-07T10:49:35.756Z,22.17
2022-10-07T10:52:32.283Z,22.07
2022-10-07T10:55:33.370Z,21.93
2022-10-07T10:58:18.433Z,21.88
2022-10-07T11:00:59.821Z,21.89
2022-10-07T11:03:45.202Z,21.88
2022-10-07T11:06:19.630Z,21.84
2022-10-07T11:08:52.841Z,21.70
2022-10-07T11:11:25.606Z,21.51
2022-10-07T11:14:02.037Z,21.35
2022-10-07T11:16:38.332Z,21.23
2022-10-07T11:19:17.677Z,21.09
2022-10-07T11:21:50.941Z,20.97
2022-10-07T11:24:28.767Z,20.82
2022-10-07T11:27:09.060Z,20.65
2022-10-07T11:29:48.513Z,20.51
2022-10-07T11:32:25.650Z,20.42
2022-10-07T11:35:04.963Z,20.34
2022-10-07T11:37:41.434Z,20.32
2022-10-07T11:40:13.077Z,20.32
2022-10-07T11:42:49.994Z,20.31
2022-10-07T11:45:25.022Z,20.18
2022-10-07T11:48:00.409Z,20.08
2022-10-07T11:50:37.547Z,19.98
2022-10-07T11:53:11.972Z,19.88
2022-10-07T11:55:51.598Z,19.79
2022-10-07T11:58:32.090Z,19.79
2022-10-07T12:01:55.426Z,19.78
2022-10-07T12:04:38.277Z,19.71
2022-10-07T12:07:40.576Z,19.66
2022-10-07T12:10:32.179Z,19.57
2022-10-07T12:13:41.162Z,19.49
2022-10-07T12:16:54.217Z,19.42
2022-10-07T12:19:25.204Z,19.32
2022-10-07T12:22:19.956Z,19.23
2022-10-07T12:25:32.381Z,19.18
2022-10-07T12:28:03.587Z,19.14
2022-10-07T12:30:50.838Z,19.13
2022-10-07T12:33:35.208Z,19.10
2022-10-07T12:36:29.462Z,19.08
2022-10-07T12:39:36.524Z,19.05
2022-10-07T12:42:13.230Z,19.04
2022-10-07T12:44:51.319Z,19.05
2022-10-07T12:47:29.630Z,19.04
2022-10-07T12:50:04.999Z,19.01
2022-10-07T12:52:46.749Z,18.98
2022-10-07T12:55:20.993Z,18.94
2022-10-07T12:57:54.606Z,18.90
2022-10-07T13:00:26.513Z,18.88
2022-10-07T13:03:18.194Z,18.82
2022-10-07T13:06:31.527Z,18.74
2022-10-07T13:09:35.361Z,18.65
2022-10-07T13:12:36.355Z,18.61
2022-10-07T13:15:41.467Z,18.59
2022-10-07T13:18:21.942Z,18.58
2022-10-07T13:21:07.846Z,18.58
2022-10-07T13:23:39.101Z,18.58
2022-10-07T13:26:13.290Z,18.59
2022-10-07T13:28:50.676Z,18.57
2022-10-07T13:31:24.768Z,18.57
2022-10-07T13:33:57.679Z,18.56
2022-10-07T13:36:30.540Z,18.56
2022-10-07T13:39:20.453Z,18.56
2022-10-07T13:41:55.482Z,18.56
2022-10-07T13:44:25.802Z,18.55
2022-10-07T13:47:00.234Z,18.55
2022-10-07T13:49:35.832Z,18.56
2022-10-07T13:52:09.075Z,18.54
2022-10-07T13:54:40.511Z,18.52
2022-10-07T13:57:16.742Z,18.53
2022-10-07T13:59:53.032Z,18.53
2022-10-07T14:02:24.264Z,18.50
2022-10-07T14:05:02.038Z,18.47
2022-10-07T14:07:32.864Z,18.45
2022-10-07T14:10:10.120Z,18.43
2022-10-07T14:12:44.108Z,18.41
2022-10-07T14:15:20.260Z,18.39
2022-10-07T14:17:54.736Z,18.38
2022-10-07T14:20:30.988Z,18.36
2022-10-07T14:23:05.917Z,18.34
2022-10-07T14:25:53.456Z,18.35
2022-10-07T14:28:30.883Z,18.35
2022-10-07T14:31:38.696Z,18.37
2022-10-07T14:34:34.111Z,18.37
2022-10-07T14:37:09.669Z,18.37
2022-10-07T14:39:42.528Z,18.36
2022-10-07T14:42:18.199Z,18.35
2022-10-07T14:44:50.297Z,18.32
2022-10-07T14:47:24.612Z,18.30
2022-10-07T14:49:56.899Z,18.27
2022-10-07T14:52:34.030Z,18.23
2022-10-07T14:55:08.873Z,18.21
2022-10-07T14:57:40.458Z,18.20
2022-10-07T15:00:17.656Z,18.18
2022-10-07T15:02:50.355Z,18.15
2022-10-07T15:05:24.711Z,18.12
2022-10-07T15:07:56.296Z,18.09
2022-10-07T15:10:28.030Z,18.05
2022-10-07T15:12:59.598Z,18.02
2022-10-07T15:15:31.078Z,18.03
2022-10-07T15:18:02.492Z,18.18
2022-10-07T15:20:33.825Z,18.22
2022-10-07T15:23:05.297Z,18.18
2022-10-07T15:25:36.954Z,18.10
2022-10-07T15:28:08.663Z,18.03
2022-10-07T15:30:39.838Z,17.95
2022-10-07T15:33:12.617Z,17.87
2022-10-07T15:35:44.760Z,17.82
2022-10-07T15:38:17.113Z,17.76
2022-10-07T15:40:56.808Z,17.70
2022-10-07T15:43:27.754Z,17.64
2022-10-07T15:46:03.328Z,17.58
2022-10-07T15:48:34.297Z,17.50
2022-10-07T15:51:11.261Z,17.42
2022-10-07T15:53:51.341Z,17.34
2022-10-07T15:56:22.632Z,17.26
2022-10-07T15:58:54.238Z,17.17
2022-10-07T16:01:55.079Z,17.08
2022-10-07T16:04:26.582Z,16.98
2022-10-07T16:06:58.301Z,16.90
2022-10-07T16:09:29.302Z,16.82
2022-10-07T16:12:00.430Z,16.73
2022-10-07T16:14:31.679Z,16.65
2022-10-07T16:17:05.886Z,16.58
2022-10-07T16:19:39.663Z,16.50
2022-10-07T16:22:10.822Z,16.44
2022-10-07T16:24:42.400Z,16.37
2022-10-07T16:27:17.057Z,16.31
2022-10-07T16:30:08.732Z,16.24
2022-10-07T16:35:45.816Z,16.10
2022-10-07T16:38:17.297Z,16.04
2022-10-07T16:40:55.747Z,15.99
2022-10-07T16:43:27.411Z,15.94
2022-10-07T16:46:01.088Z,15.90
2022-10-07T16:48:32.830Z,15.86
2022-10-07T16:51:04.868Z,15.81
2022-10-07T16:53:36.239Z,15.76
2022-10-07T16:56:07.996Z,15.72
2022-10-07T16:58:39.753Z,15.67
2022-10-07T17:01:13.816Z,15.64
2022-10-07T17:03:50.110Z,15.61
2022-10-07T17:06:22.811Z,15.57
2022-10-07T17:08:55.587Z,15.53
2022-10-07T17:11:30.098Z,15.51
2022-10-07T17:14:04.291Z,15.48
2022-10-07T17:16:37.948Z,15.45
2022-10-07T17:19:14.831Z,15.41
2022-10-07T17:21:47.817Z,15.38
2022-10-07T17:24:48.680Z,15.36
2022-10-07T17:27:21.035Z,15.33
2022-10-07T17:29:53.025Z,15.32
2022-10-07T17:32:27.184Z,15.30
2022-10-07T17:35:00.617Z,15.27
2022-10-07T17:37:31.611Z,15.24
2022-10-07T17:40:02.643Z,15.23
2022-10-07T17:42:33.874Z,15.20
2022-10-07T17:45:06.175Z,15.17
2022-10-07T17:47:38.379Z,15.14
2022-10-07T17:50:10.220Z,15.12
2022-10-07T17:52:41.829Z,15.11
2022-10-07T17:55:13.610Z,15.09
2022-10-07T17:57:46.467Z,15.07
2022-10-07T18:00:18.479Z,15.05
2022-10-07T18:02:52.730Z,15.02
2022-10-07T18:05:24.465Z,14.99
2022-10-07T18:07:56.204Z,14.98
2022-10-07T18:10:30.872Z,14.96
2022-10-07T18:13:19.576Z,14.93
2022-10-07T18:16:01.071Z,14.91
2022-10-07T18:18:32.502Z,14.88
2022-10-07T18:21:08.414Z,14.86
2022-10-07T18:23:40.015Z,14.83
2022-10-07T18:26:13.579Z,14.80
2022-10-07T18:28:51.605Z,14.79
2022-10-07T18:31:22.993Z,14.77
2022-10-07T18:33:54.198Z,14.75
2022-10-07T18:36:28.522Z,14.73
2022-10-07T18:38:59.588Z,14.70
2022-10-07T18:41:31.546Z,14.67
2022-10-07T18:44:02.452Z,14.65
2022-10-07T18:46:34.209Z,14.61
2022-10-07T18:49:05.804Z,14.59
2022-10-07T18:51:39.738Z,14.57
2022-10-07T18:54:16.589Z,14.55
2022-10-07T18:56:49.619Z,14.53
2022-10-07T18:59:22.529Z,14.49
2022-10-07T19:02:04.583Z,14.46
2022-10-07T19:04:38.923Z,14.44
2022-10-07T19:07:12.533Z,14.41
2022-10-07T19:09:43.733Z,14.39
2022-10-07T19:12:28.631Z,14.36
2022-10-07T19:14:59.565Z,14.33
2022-10-07T19:17:30.965Z,14.30
2022-10-07T19:20:02.412Z,14.29
2022-10-07T19:22:34.763Z,14.26
2022-10-07T19:25:25.723Z,14.24
2022-10-07T19:27:57.496Z,14.23
2022-10-07T19:30:28.357Z,14.21
2022-10-07T19:33:05.398Z,14.19
2022-10-07T19:35:40.481Z,14.17
2022-10-07T19:38:14.502Z,14.14
2022-10-07T19:40:46.255Z,14.12
2022-10-07T19:43:17.367Z,14.09
2022-10-07T19:45:48.567Z,14.07
2022-10-07T19:48:24.445Z,14.05
2022-10-07T19:51:04.311Z,14.03
2022-10-07T19:53:37.095Z,14.01
2022-10-07T19:56:15.947Z,13.99
2022-10-07T19:58:55.751Z,13.98
2022-10-07T20:01:29.713Z,13.95
2022-10-07T20:04:02.754Z,13.93
2022-10-07T20:06:34.841Z,13.90
2022-10-07T20:09:07.817Z,13.89
2022-10-07T20:11:41.516Z,13.89
2022-10-07T20:14:16.402Z,13.89
2022-10-07T20:16:47.467Z,13.87
2022-10-07T20:19:19.678Z,13.84
2022-10-07T20:21:50.979Z,13.82
2022-10-07T20:24:22.071Z,13.81
2022-10-07T20:26:54.698Z,13.78
2022-10-07T20:29:26.233Z,13.78
2022-10-07T20:31:57.709Z,13.76
2022-10-07T20:34:30.873Z,13.73
2022-10-07T20:37:04.641Z,13.72
2022-10-07T20:39:54.039Z,13.70
2022-10-07T20:42:27.452Z,13.67
2022-10-07T20:44:59.910Z,13.65
2022-10-07T20:47:33.678Z,13.62
2022-10-07T20:50:05.049Z,13.58
2022-10-07T20:52:39.012Z,13.56
2022-10-07T20:55:16.752Z,13.53
2022-10-07T20:57:55.296Z,13.50
2022-10-07T21:00:26.427Z,13.47
2022-10-07T21:02:57.452Z,13.45
2022-10-07T21:05:30.263Z,13.43
2022-10-07T21:08:02.797Z,13.41
2022-10-07T21:10:36.187Z,13.38
2022-10-07T21:13:10.442Z,13.36
2022-10-07T21:15:43.033Z,13.34
2022-10-07T21:18:14.882Z,13.33
2022-10-07T21:20:56.704Z,13.31
2022-10-07T21:23:29.500Z,13.29
2022-10-07T21:26:07.758Z,13.26
2022-10-07T21:28:41.775Z,13.25
2022-10-07T21:31:17.688Z,13.22
2022-10-07T21:33:53.278Z,13.21
2022-10-07T21:36:26.016Z,13.18
2022-10-07T21:39:05.306Z,13.16
2022-10-07T21:41:38.909Z,13.14
2022-10-07T21:44:13.897Z,13.12
2022-10-07T21:46:45.702Z,13.11
2022-10-07T21:49:18.301Z,13.10
2022-10-07T21:51:49.148Z,13.08
2022-10-07T21:54:20.582Z,13.07
2022-10-07T21:56:51.748Z,13.05
2022-10-07T21:59:22.909Z,13.04
2022-10-07T22:01:53.907Z,13.02
2022-10-07T22:04:25.105Z,13.01
2022-10-07T22:07:14.057Z,12.99
2022-10-07T22:09:45.755Z,12.97
2022-10-07T22:12:18.652Z,12.96
2022-10-07T22:14:50.561Z,12.93
2022-10-07T22:17:21.960Z,12.92
2022-10-07T22:19:53.174Z,12.90
2022-10-07T22:22:25.227Z,12.88
2022-10-07T22:24:56.436Z,12.86
2022-10-07T22:27:28.443Z,12.83
2022-10-07T22:30:00.445Z,12.81
2022-10-07T22:32:32.084Z,12.78
2022-10-07T22:35:21.603Z,12.75
2022-10-07T22:37:52.851Z,12.72
2022-10-07T22:40:24.022Z,12.70
2022-10-07T22:42:59.501Z,12.68
2022-10-07T22:45:33.032Z,12.65
2022-10-07T22:48:04.311Z,12.63
2022-10-07T22:50:36.177Z,12.61
2022-10-07T22:53:11.929Z,12.59
2022-10-07T22:55:42.801Z,12.57
2022-10-07T22:58:15.076Z,12.56
2022-10-07T23:00:47.595Z,12.53
2022-10-07T23:03:19.019Z,12.51
2022-10-07T23:05:52.095Z,12.49
2022-10-07T23:08:27.092Z,12.47
2022-10-07T23:11:03.308Z,12.45
2022-10-07T23:13:37.294Z,12.44
2022-10-07T23:16:13.964Z,12.43
2022-10-07T23:18:49.244Z,12.42
2022-10-07T23:21:23.397Z,12.42
2022-10-07T23:24:06.949Z,12.40
2022-10-07T23:26:39.495Z,12.39
2022-10-07T23:29:11.769Z,12.38
2022-10-07T23:31:42.667Z,12.38
2022-10-07T23:34:15.091Z,12.37
2022-10-07T23:36:45.928Z,12.36
2022-10-07T23:39:16.745Z,12.35
2022-10-07T23:41:47.579Z,12.35
2022-10-07T23:44:18.448Z,12.34
2022-10-07T23:46:50.722Z,12.32
2022-10-07T23:49:21.635Z,12.33
2022-10-07T23:51:52.450Z,12.32
2022-10-07T23:54:23.221Z,12.32
2022-10-07T23:56:54.270Z,12.32
2022-10-07T23:59:25.121Z,12.30
